Terminal Aerodrome Forecast
Issued by NWS

Home | Current Version | Previous Version | Text Only | Print | Product List | Glossary On
Versions: 1 2 3 4 5 6 7 8 9 10 11 12 13 14 15 16 17 18 19 20 21 22 23 24 25 26 27 28 29 30 31 32 33 34 35 36 37
000
FTUS45 KBOU 290256 AAB
TAFBJC
TAF AMD
KBJC 290256Z 2903/2924 VRB05KT P6SM SCT003 BKN008 OVC015
      TEMPO 2903/2904 2SM -DZ BKN004
     FM290400 03006KT P6SM VCSH BKN005 OVC015
      TEMPO 2904/2907 2SM -SN BR OVC003
     FM290700 09009KT 1SM -SN BR OVC004
     FM291200 07010KT 3/4SM -SN BR OVC003
     FM291800 04010KT 3/4SM -SNRA BR OVC005
     FM292300 02011KT 1 1/2SM -SN BR OVC010=

USA.gov is the U.S. government's official web portal to all federal, state and local government web resources and services.